createdAt,value
2023-03-11T00:00:25.526Z,100.00
2023-03-11T00:02:54.454Z,100.00
2023-03-11T00:05:27.070Z,100.00
2023-03-11T00:07:54.401Z,100.00
2023-03-11T00:10:25.504Z,100.00
2023-03-11T00:12:52.341Z,100.00
2023-03-11T00:15:19.518Z,100.00
2023-03-11T00:17:48.495Z,100.00
2023-03-11T00:20:19.573Z,100.00
2023-03-11T00:22:47.302Z,100.00
2023-03-11T00:25:14.233Z,100.00
2023-03-11T00:27:40.918Z,100.00
2023-03-11T00:30:08.328Z,100.00
2023-03-11T00:32:35.079Z,100.00
2023-03-11T00:35:02.174Z,100.00
2023-03-11T00:37:29.074Z,100.00
2023-03-11T00:39:55.798Z,100.00
2023-03-11T00:42:22.598Z,100.00
2023-03-11T00:44:49.305Z,100.00
2023-03-11T00:47:16.128Z,100.00
2023-03-11T00:49:43.239Z,100.00
2023-03-11T00:52:09.933Z,100.00
2023-03-11T00:54:36.628Z,100.00
2023-03-11T00:57:03.419Z,100.00
2023-03-11T00:59:30.116Z,100.00
2023-03-11T01:01:56.840Z,100.00
2023-03-11T01:04:23.736Z,100.00
2023-03-11T01:06:50.376Z,100.00
2023-03-11T01:09:17.089Z,100.00
2023-03-11T01:11:44.331Z,100.00
2023-03-11T01:14:11.056Z,100.00
2023-03-11T01:16:37.795Z,100.00
2023-03-11T01:19:04.547Z,100.00
2023-03-11T01:21:31.677Z,100.00
2023-03-11T01:23:58.319Z,100.00
2023-03-11T01:26:25.108Z,100.00
2023-03-11T01:28:51.818Z,100.00
2023-03-11T01:31:18.611Z,100.00
2023-03-11T01:33:45.644Z,100.00
2023-03-11T01:36:12.502Z,100.00
2023-03-11T01:38:39.349Z,100.00
2023-03-11T01:41:06.628Z,100.00
2023-03-11T01:43:45.195Z,100.00
2023-03-11T01:46:18.206Z,100.00
2023-03-11T01:48:48.457Z,100.00
2023-03-11T01:51:17.898Z,100.00
2023-03-11T01:53:45.506Z,100.00
2023-03-11T01:56:14.326Z,100.00
2023-03-11T01:58:45.038Z,100.00
2023-03-11T02:01:13.071Z,100.00
2023-03-11T02:03:42.423Z,100.00
2023-03-11T02:06:14.165Z,100.00
2023-03-11T02:08:42.420Z,100.00
2023-03-11T02:11:12.997Z,100.00
2023-03-11T02:13:41.977Z,100.00
2023-03-11T02:16:08.825Z,100.00
2023-03-11T02:18:36.925Z,100.00
2023-03-11T02:21:24.991Z,100.00
2023-03-11T02:24:22.514Z,100.00
2023-03-11T02:27:09.472Z,100.00
2023-03-11T02:29:37.556Z,100.00
2023-03-11T02:32:07.975Z,100.00
2023-03-11T02:34:37.467Z,100.00
2023-03-11T02:37:06.667Z,100.00
2023-03-11T02:39:37.287Z,100.00
2023-03-11T02:42:23.350Z,100.00
2023-03-11T02:44:56.048Z,100.00
2023-03-11T02:47:23.035Z,100.00
2023-03-11T02:49:49.686Z,100.00
2023-03-11T02:52:17.452Z,100.00
2023-03-11T02:54:44.068Z,100.00
2023-03-11T02:57:10.735Z,100.00
2023-03-11T02:59:37.566Z,100.00
2023-03-11T03:02:04.564Z,100.00
2023-03-11T03:04:31.250Z,100.00
2023-03-11T03:06:57.945Z,100.00
2023-03-11T03:09:24.684Z,100.00
2023-03-11T03:11:51.392Z,100.00
2023-03-11T03:14:18.146Z,100.00
2023-03-11T03:16:44.924Z,100.00
2023-03-11T03:19:11.738Z,100.00
2023-03-11T03:21:38.411Z,100.00
2023-03-11T03:24:05.148Z,100.00
2023-03-11T03:26:31.803Z,100.00
2023-03-11T03:29:00.542Z,100.00
2023-03-11T03:31:27.286Z,100.00
2023-03-11T03:33:54.036Z,100.00
2023-03-11T03:36:20.791Z,100.00
2023-03-11T03:38:47.492Z,100.00
2023-03-11T03:41:15.842Z,100.00
2023-03-11T03:43:42.619Z,100.00
2023-03-11T03:46:09.414Z,100.00
2023-03-11T03:48:36.268Z,100.00
2023-03-11T03:51:09.020Z,100.00
2023-03-11T03:53:36.520Z,100.00
2023-03-11T03:56:07.789Z,100.00
2023-03-11T03:58:34.566Z,100.00
2023-03-11T04:01:01.428Z,100.00
2023-03-11T04:03:28.755Z,100.00
2023-03-11T04:06:05.036Z,100.00
2023-03-11T04:08:31.642Z,100.00
2023-03-11T04:10:58.519Z,100.00
2023-03-11T04:13:25.226Z,100.00
2023-03-11T04:15:51.941Z,100.00
2023-03-11T04:18:18.783Z,100.00
2023-03-11T04:20:46.617Z,100.00
2023-03-11T04:23:13.236Z,100.00
2023-03-11T04:25:39.894Z,100.00
2023-03-11T04:28:07.058Z,100.00
2023-03-11T04:30:33.821Z,100.00
2023-03-11T04:33:00.477Z,100.00
2023-03-11T04:35:27.285Z,100.00
2023-03-11T04:37:54.011Z,100.00
2023-03-11T04:40:20.768Z,100.00
2023-03-11T04:42:48.464Z,100.00
2023-03-11T04:45:15.241Z,100.00
2023-03-11T04:47:41.923Z,100.00
2023-03-11T04:50:09.096Z,100.00
2023-03-11T04:52:35.804Z,100.00
2023-03-11T04:55:02.551Z,100.00
2023-03-11T04:57:29.330Z,100.00
2023-03-11T04:59:56.118Z,100.00
2023-03-11T05:02:22.852Z,100.00
2023-03-11T05:04:49.644Z,100.00
2023-03-11T05:07:16.723Z,100.00
2023-03-11T05:09:44.044Z,100.00
2023-03-11T05:12:13.520Z,100.00
2023-03-11T05:14:40.868Z,100.00
2023-03-11T05:17:08.162Z,100.00
2023-03-11T05:19:35.302Z,100.00
2023-03-11T05:22:06.011Z,100.00
2023-03-11T05:24:33.299Z,100.00
2023-03-11T05:27:00.259Z,100.00
2023-03-11T05:29:26.968Z,100.00
2023-03-11T05:31:54.287Z,100.00
2023-03-11T05:34:21.689Z,100.00
2023-03-11T05:36:48.851Z,100.00
2023-03-11T05:39:15.623Z,100.00
2023-03-11T05:41:43.253Z,100.00
2023-03-11T05:44:10.123Z,100.00
2023-03-11T05:46:36.911Z,100.00
2023-03-11T05:49:03.790Z,100.00
2023-03-11T05:51:30.477Z,100.00
2023-03-11T05:53:57.227Z,100.00
2023-03-11T05:56:24.079Z,100.00
2023-03-11T05:58:50.862Z,100.00
2023-03-11T06:01:19.097Z,100.00
2023-03-11T06:03:45.916Z,100.00
2023-03-11T06:06:13.987Z,100.00
2023-03-11T06:08:46.143Z,100.00
2023-03-11T06:11:13.167Z,100.00
2023-03-11T06:13:39.890Z,100.00
2023-03-11T06:16:07.112Z,100.00
2023-03-11T06:18:34.121Z,100.00
2023-03-11T06:21:02.375Z,100.00
2023-03-11T06:23:30.215Z,100.00
2023-03-11T06:26:02.118Z,100.00
2023-03-11T06:28:29.662Z,100.00
2023-03-11T06:30:56.932Z,100.00
2023-03-11T06:33:24.369Z,100.00
2023-03-11T06:36:01.629Z,100.00
2023-03-11T06:38:28.812Z,100.00
2023-03-11T06:41:00.155Z,100.00
2023-03-11T06:43:27.122Z,100.00
2023-03-11T06:45:53.854Z,100.00
2023-03-11T06:48:20.631Z,100.00
2023-03-11T06:50:58.127Z,100.00
2023-03-11T06:53:25.823Z,100.00
2023-03-11T06:56:19.344Z,100.00
2023-03-11T06:58:46.680Z,100.00
2023-03-11T07:01:22.231Z,100.00
2023-03-11T07:03:50.120Z,100.00
2023-03-11T07:06:23.821Z,100.00
2023-03-11T07:08:52.210Z,100.00
2023-03-11T07:11:19.222Z,100.00
2023-03-11T07:13:46.384Z,100.00
2023-03-11T07:16:15.784Z,100.00
2023-03-11T07:18:44.159Z,100.00
2023-03-11T07:21:14.238Z,100.00
2023-03-11T07:23:41.802Z,100.00
2023-03-11T07:26:10.539Z,100.00
2023-03-11T07:28:38.437Z,100.00
2023-03-11T07:31:16.876Z,100.00
2023-03-11T07:33:43.601Z,100.00
2023-03-11T07:36:22.336Z,100.00
2023-03-11T07:38:59.631Z,100.00
2023-03-11T07:41:27.157Z,100.00
2023-03-11T07:43:56.043Z,100.00
2023-03-11T07:46:24.518Z,100.00
2023-03-11T07:48:51.997Z,100.00
2023-03-11T07:51:24.087Z,100.00
2023-03-11T07:53:52.846Z,100.00
2023-03-11T07:56:20.109Z,100.00
2023-03-11T07:58:46.982Z,100.00
2023-03-11T08:01:24.710Z,100.00
2023-03-11T08:03:57.170Z,100.00
2023-03-11T08:06:27.102Z,100.00
2023-03-11T08:08:53.984Z,100.00
2023-03-11T08:11:21.553Z,100.00
2023-03-11T08:13:48.450Z,100.00
2023-03-11T08:16:17.760Z,100.00
2023-03-11T08:18:45.832Z,100.00
2023-03-11T08:21:15.287Z,100.00
2023-03-11T08:23:43.187Z,100.00
2023-03-11T08:26:13.869Z,100.00
2023-03-11T08:28:40.931Z,100.00
2023-03-11T08:31:24.174Z,100.00
2023-03-11T08:33:52.745Z,100.00
2023-03-11T08:36:20.388Z,100.00
2023-03-11T08:38:47.452Z,100.00
2023-03-11T08:41:14.196Z,100.00
2023-03-11T08:43:41.415Z,100.00
2023-03-11T08:46:08.160Z,100.00
2023-03-11T08:48:37.371Z,100.00
2023-03-11T08:51:10.677Z,100.00
2023-03-11T08:53:37.847Z,100.00
2023-03-11T08:56:05.185Z,100.00
2023-03-11T08:58:32.053Z,100.00
2023-03-11T09:00:59.082Z,100.00
2023-03-11T09:03:25.838Z,100.00
2023-03-11T09:06:04.566Z,100.00
2023-03-11T09:08:31.296Z,100.00
2023-03-11T09:10:58.086Z,100.00
2023-03-11T09:13:24.915Z,100.00
2023-03-11T09:15:52.407Z,100.00
2023-03-11T09:18:19.286Z,100.00
2023-03-11T09:20:46.389Z,100.00
2023-03-11T09:23:15.724Z,100.00
2023-03-11T09:25:42.556Z,100.00
2023-03-11T09:28:09.391Z,100.00
2023-03-11T09:30:36.153Z,100.00
2023-03-11T09:33:03.112Z,100.00
2023-03-11T09:35:30.192Z,100.00
2023-03-11T09:37:56.852Z,100.00
2023-03-11T09:40:25.734Z,100.00
2023-03-11T09:43:16.968Z,100.00
2023-03-11T09:46:07.412Z,100.00
2023-03-11T09:48:57.824Z,100.00
2023-03-11T09:51:42.844Z,100.00
2023-03-11T09:54:14.019Z,100.00
2023-03-11T09:56:44.421Z,100.00
2023-03-11T09:59:30.490Z,100.00
2023-03-11T10:01:57.620Z,100.00
2023-03-11T10:04:36.953Z,100.00
2023-03-11T10:07:12.354Z,100.00
2023-03-11T10:09:46.406Z,100.00
2023-03-11T10:12:39.111Z,100.00
2023-03-11T10:15:20.775Z,100.00
2023-03-11T10:18:27.703Z,100.00
2023-03-11T10:21:12.517Z,100.00
2023-03-11T10:24:16.698Z,100.00
2023-03-11T10:26:50.091Z,100.00
2023-03-11T10:29:44.778Z,100.00
2023-03-11T10:32:20.157Z,100.00
2023-03-11T10:34:46.888Z,100.00
2023-03-11T10:37:48.834Z,100.00
2023-03-11T10:40:40.655Z,100.00
2023-03-11T10:43:14.856Z,100.00
2023-03-11T10:45:45.007Z,100.00
2023-03-11T10:48:17.801Z,98.26
2023-03-11T10:51:12.953Z,96.43
2023-03-11T10:53:52.652Z,91.00
2023-03-11T10:56:37.979Z,84.80
2023-03-11T10:59:21.753Z,86.66
2023-03-11T11:02:03.627Z,85.39
2023-03-11T11:04:40.687Z,89.04
2023-03-11T11:07:36.543Z,85.39
2023-03-11T11:10:12.270Z,86.38
2023-03-11T11:13:04.217Z,86.88
2023-03-11T11:15:40.560Z,87.75
2023-03-11T11:18:27.433Z,89.48
2023-03-11T11:21:27.889Z,89.40
2023-03-11T11:24:20.898Z,88.68
2023-03-11T11:27:21.578Z,88.30
2023-03-11T11:30:09.276Z,82.76
2023-03-11T11:32:37.283Z,78.63
2023-03-11T11:35:07.009Z,80.04
2023-03-11T11:37:39.979Z,82.98
2023-03-11T11:40:27.288Z,79.18
2023-03-11T11:43:26.031Z,77.05
2023-03-11T11:46:00.626Z,75.30
2023-03-11T11:48:32.054Z,78.05
2023-03-11T11:51:02.986Z,73.16
2023-03-11T11:53:41.156Z,69.85
2023-03-11T11:56:08.090Z,72.31
2023-03-11T11:58:35.716Z,70.54
2023-03-11T12:01:14.405Z,72.43
2023-03-11T12:04:12.530Z,72.77
2023-03-11T12:06:45.281Z,71.82
2023-03-11T12:09:35.013Z,71.42
2023-03-11T12:12:27.164Z,71.30
2023-03-11T12:15:14.042Z,71.93
2023-03-11T12:17:44.800Z,71.90
2023-03-11T12:20:18.926Z,70.61
2023-03-11T12:23:10.652Z,71.81
2023-03-11T12:26:04.216Z,72.77
2023-03-11T12:28:41.179Z,73.05
2023-03-11T12:31:10.656Z,72.10
2023-03-11T12:33:39.987Z,70.32
2023-03-11T12:36:10.436Z,69.22
2023-03-11T12:38:40.141Z,70.60
2023-03-11T12:41:15.800Z,71.96
2023-03-11T12:43:42.437Z,69.96
2023-03-11T12:46:11.153Z,70.27
2023-03-11T12:48:50.251Z,68.34
2023-03-11T12:51:39.206Z,69.26
2023-03-11T12:54:33.185Z,69.97
2023-03-11T12:57:13.210Z,72.47
2023-03-11T12:59:45.729Z,100.00
2023-03-11T13:02:48.563Z,100.00
2023-03-11T13:05:23.947Z,100.00
2023-03-11T13:08:10.269Z,100.00
2023-03-11T13:10:41.119Z,100.00
2023-03-11T13:13:32.516Z,100.00
2023-03-11T13:16:19.428Z,100.00
2023-03-11T13:18:48.110Z,100.00
2023-03-11T13:21:32.639Z,100.00
2023-03-11T13:24:27.082Z,100.00
2023-03-11T13:26:59.669Z,100.00
2023-03-11T13:29:47.793Z,100.00
2023-03-11T13:32:25.363Z,100.00
2023-03-11T13:34:54.883Z,100.00
2023-03-11T13:37:30.628Z,100.00
2023-03-11T13:40:24.714Z,100.00
2023-03-11T13:42:55.948Z,100.00
2023-03-11T13:45:29.942Z,100.00
2023-03-11T13:48:05.327Z,100.00
2023-03-11T13:50:44.529Z,100.00
2023-03-11T13:53:20.964Z,100.00
2023-03-11T13:55:48.260Z,100.00
2023-03-11T13:58:32.897Z,100.00
2023-03-11T14:01:01.727Z,100.00
2023-03-11T14:03:41.595Z,100.00
2023-03-11T14:06:20.560Z,100.00
2023-03-11T14:08:55.548Z,100.00
2023-03-11T14:11:27.226Z,100.00
2023-03-11T14:13:54.202Z,100.00
2023-03-11T14:16:44.019Z,100.00
2023-03-11T14:19:18.980Z,100.00
2023-03-11T14:21:47.867Z,100.00
2023-03-11T14:24:17.625Z,100.00
2023-03-11T14:26:45.332Z,100.00
2023-03-11T14:29:17.737Z,100.00
2023-03-11T14:31:46.017Z,100.00
2023-03-11T14:34:27.504Z,100.00
2023-03-11T14:36:57.377Z,100.00
2023-03-11T14:39:37.369Z,100.00
2023-03-11T14:42:13.813Z,100.00
2023-03-11T14:44:43.666Z,100.00
2023-03-11T14:47:13.186Z,100.00
2023-03-11T14:49:40.430Z,100.00
2023-03-11T14:52:18.297Z,100.00
2023-03-11T14:54:46.039Z,100.00
2023-03-11T14:57:30.602Z,100.00
2023-03-11T14:59:57.960Z,100.00
2023-03-11T15:02:50.654Z,100.00
2023-03-11T15:05:28.024Z,100.00
2023-03-11T15:08:00.451Z,100.00
2023-03-11T15:10:27.202Z,100.00
2023-03-11T15:13:11.312Z,100.00
2023-03-11T15:15:38.071Z,100.00
2023-03-11T15:18:22.313Z,100.00
2023-03-11T15:21:05.740Z,100.00
2023-03-11T15:23:35.546Z,100.00
2023-03-11T15:26:04.198Z,100.00
2023-03-11T15:28:37.710Z,100.00
2023-03-11T15:31:22.681Z,100.00
2023-03-11T15:33:51.805Z,100.00
2023-03-11T15:36:31.530Z,100.00
2023-03-11T15:39:13.791Z,100.00
2023-03-11T15:41:46.510Z,100.00
2023-03-11T15:44:32.804Z,100.00
2023-03-11T15:47:00.491Z,100.00
2023-03-11T15:49:29.267Z,100.00
2023-03-11T15:52:05.050Z,100.00
2023-03-11T15:54:31.739Z,100.00
2023-03-11T15:57:03.697Z,100.00
2023-03-11T15:59:30.694Z,100.00
2023-03-11T16:01:58.406Z,100.00
2023-03-11T16:04:26.214Z,100.00
2023-03-11T16:07:07.117Z,100.00
2023-03-11T16:09:34.491Z,100.00
2023-03-11T16:12:02.192Z,100.00
2023-03-11T16:14:28.840Z,100.00
2023-03-11T16:16:55.677Z,100.00
2023-03-11T16:19:22.422Z,100.00
2023-03-11T16:21:50.599Z,100.00
2023-03-11T16:24:21.057Z,100.00
2023-03-11T16:26:48.376Z,100.00
2023-03-11T16:29:19.341Z,100.00
2023-03-11T16:31:47.124Z,100.00
2023-03-11T16:34:13.937Z,100.00
2023-03-11T16:36:40.879Z,100.00
2023-03-11T16:39:07.564Z,100.00
2023-03-11T16:41:42.264Z,100.00
2023-03-11T16:44:09.876Z,100.00
2023-03-11T16:46:37.635Z,100.00
2023-03-11T16:49:05.382Z,100.00
2023-03-11T16:51:32.367Z,100.00
2023-03-11T16:53:59.729Z,100.00
2023-03-11T16:56:26.507Z,100.00
2023-03-11T16:58:53.227Z,100.00
2023-03-11T17:01:21.777Z,100.00
2023-03-11T17:03:52.776Z,100.00
2023-03-11T17:06:20.636Z,100.00
2023-03-11T17:08:49.523Z,100.00
2023-03-11T17:11:24.374Z,100.00
2023-03-11T17:13:51.343Z,100.00
2023-03-11T17:16:18.050Z,100.00
2023-03-11T17:18:45.031Z,100.00
2023-03-11T17:21:14.261Z,100.00
2023-03-11T17:23:41.349Z,100.00
2023-03-11T17:26:13.706Z,100.00
2023-03-11T17:28:40.612Z,100.00
2023-03-11T17:31:12.687Z,100.00
2023-03-11T17:33:40.029Z,100.00
2023-03-11T17:36:09.227Z,100.00
2023-03-11T17:38:36.000Z,100.00
2023-03-11T17:41:08.364Z,100.00
2023-03-11T17:43:35.147Z,100.00
2023-03-11T17:46:02.377Z,100.00
2023-03-11T17:48:29.156Z,100.00
2023-03-11T17:50:55.950Z,100.00
2023-03-11T17:53:23.049Z,100.00
2023-03-11T17:55:49.897Z,100.00
2023-03-11T17:58:16.540Z,100.00
2023-03-11T18:00:43.177Z,100.00
2023-03-11T18:03:09.907Z,100.00
2023-03-11T18:05:38.109Z,100.00
2023-03-11T18:08:04.947Z,100.00
2023-03-11T18:10:31.763Z,100.00
2023-03-11T18:12:58.452Z,100.00
2023-03-11T18:15:25.120Z,100.00
2023-03-11T18:17:51.879Z,100.00
2023-03-11T18:20:19.476Z,100.00
2023-03-11T18:22:47.280Z,100.00
2023-03-11T18:25:14.548Z,100.00
2023-03-11T18:27:41.499Z,100.00
2023-03-11T18:30:11.258Z,100.00
2023-03-11T18:32:38.025Z,100.00
2023-03-11T18:35:05.309Z,100.00
2023-03-11T18:37:33.605Z,100.00
2023-03-11T18:40:00.512Z,100.00
2023-03-11T18:42:27.233Z,100.00
2023-03-11T18:44:53.933Z,100.00
2023-03-11T18:47:20.602Z,100.00
2023-03-11T18:49:47.474Z,100.00
2023-03-11T18:52:14.294Z,100.00
2023-03-11T18:54:41.178Z,100.00
2023-03-11T18:57:07.951Z,100.00
2023-03-11T18:59:34.586Z,100.00
2023-03-11T19:02:01.244Z,100.00
2023-03-11T19:04:28.633Z,100.00
2023-03-11T19:06:55.347Z,100.00
2023-03-11T19:09:22.091Z,100.00
2023-03-11T19:11:48.829Z,100.00
2023-03-11T19:14:15.546Z,100.00
2023-03-11T19:16:43.634Z,100.00
2023-03-11T19:19:11.928Z,100.00
2023-03-11T19:21:38.969Z,100.00
2023-03-11T19:24:05.809Z,100.00
2023-03-11T19:26:44.292Z,100.00
2023-03-11T19:29:13.824Z,100.00
2023-03-11T19:31:40.754Z,100.00
2023-03-11T19:34:07.578Z,100.00
2023-03-11T19:36:34.867Z,100.00
2023-03-11T19:39:01.543Z,100.00
2023-03-11T19:41:28.390Z,100.00
2023-03-11T19:43:56.210Z,100.00
2023-03-11T19:46:23.191Z,100.00
2023-03-11T19:48:50.116Z,100.00
2023-03-11T19:51:19.766Z,100.00
2023-03-11T19:53:47.210Z,100.00
2023-03-11T19:56:14.054Z,100.00
2023-03-11T19:58:42.681Z,100.00
2023-03-11T20:01:16.769Z,100.00
2023-03-11T20:03:43.953Z,100.00
2023-03-11T20:06:11.242Z,100.00
2023-03-11T20:08:37.888Z,100.00
2023-03-11T20:11:06.441Z,100.00
2023-03-11T20:13:34.793Z,100.00
2023-03-11T20:16:10.139Z,100.00
2023-03-11T20:18:37.325Z,100.00
2023-03-11T20:21:08.986Z,100.00
2023-03-11T20:23:36.553Z,100.00
2023-03-11T20:26:14.992Z,100.00
2023-03-11T20:28:42.243Z,100.00
2023-03-11T20:31:19.642Z,100.00
2023-03-11T20:33:48.128Z,100.00
2023-03-11T20:36:21.143Z,100.00
2023-03-11T20:38:49.559Z,100.00
2023-03-11T20:41:17.067Z,100.00
2023-03-11T20:43:44.825Z,100.00
2023-03-11T20:46:12.638Z,100.00
2023-03-11T20:48:39.906Z,100.00
2023-03-11T20:51:13.182Z,100.00
2023-03-11T20:53:40.598Z,100.00
2023-03-11T20:56:21.375Z,100.00
2023-03-11T20:58:51.151Z,100.00
2023-03-11T21:01:23.843Z,100.00
2023-03-11T21:03:54.138Z,100.00
2023-03-11T21:06:41.197Z,100.00
2023-03-11T21:09:12.175Z,100.00
2023-03-11T21:11:38.974Z,100.00
2023-03-11T21:14:07.044Z,100.00
2023-03-11T21:16:34.191Z,100.00
2023-03-11T21:19:05.305Z,100.00
2023-03-11T21:21:32.103Z,100.00
2023-03-11T21:23:58.915Z,100.00
2023-03-11T21:26:25.760Z,98.18
2023-03-11T21:28:52.618Z,100.00
2023-03-11T21:31:22.001Z,98.80
2023-03-11T21:33:52.188Z,95.89
2023-03-11T21:36:19.222Z,97.97
2023-03-11T21:38:46.812Z,100.00
2023-03-11T21:41:27.325Z,99.34
2023-03-11T21:43:55.767Z,98.65
2023-03-11T21:46:25.694Z,97.69
2023-03-11T21:48:52.861Z,96.90
2023-03-11T21:51:20.690Z,97.71
2023-03-11T21:53:48.101Z,96.70
2023-03-11T21:56:15.959Z,95.06
2023-03-11T21:58:43.541Z,95.99
2023-03-11T22:01:11.030Z,95.23
2023-03-11T22:03:38.291Z,95.74
2023-03-11T22:06:08.132Z,95.09
2023-03-11T22:08:35.504Z,95.23
2023-03-11T22:11:03.141Z,95.88
2023-03-11T22:13:29.827Z,97.58
2023-03-11T22:15:56.509Z,98.45
2023-03-11T22:18:23.349Z,94.95
2023-03-11T22:20:50.196Z,100.00
2023-03-11T22:23:16.855Z,100.00
2023-03-11T22:25:43.954Z,100.00
2023-03-11T22:28:13.111Z,100.00
2023-03-11T22:30:39.850Z,98.71
2023-03-11T22:33:07.254Z,100.00
2023-03-11T22:35:34.661Z,100.00
2023-03-11T22:38:01.419Z,100.00
2023-03-11T22:40:28.253Z,100.00
2023-03-11T22:42:55.290Z,100.00
2023-03-11T22:45:23.134Z,100.00
2023-03-11T22:47:50.743Z,100.00
2023-03-11T22:50:18.404Z,100.00
2023-03-11T22:52:45.582Z,100.00
2023-03-11T22:55:12.409Z,100.00
2023-03-11T22:57:39.316Z,100.00
2023-03-11T23:00:17.886Z,100.00
2023-03-11T23:02:46.227Z,100.00
2023-03-11T23:05:14.644Z,100.00
2023-03-11T23:07:42.017Z,100.00
2023-03-11T23:10:10.546Z,99.97
2023-03-11T23:12:37.267Z,98.68
2023-03-11T23:15:06.407Z,90.24
2023-03-11T23:17:33.052Z,87.93
2023-03-11T23:20:00.067Z,86.16
2023-03-11T23:22:26.883Z,86.30
2023-03-11T23:24:53.992Z,81.38
2023-03-11T23:27:20.694Z,81.14
2023-03-11T23:29:49.435Z,78.32
2023-03-11T23:32:16.174Z,76.13
2023-03-11T23:34:42.866Z,74.61
2023-03-11T23:37:09.539Z,74.14
2023-03-11T23:39:36.215Z,74.97
2023-03-11T23:42:14.794Z,74.44
2023-03-11T23:44:49.206Z,74.08
2023-03-11T23:47:15.849Z,74.03
2023-03-11T23:49:42.610Z,73.24
2023-03-11T23:52:09.318Z,73.15
2023-03-11T23:54:36.131Z,73.85
2023-03-11T23:57:02.817Z,73.85
2023-03-11T23:59:29.553Z,75.50
